sensor_id;sensor_type;location;lat;lon;timestamp;temperature;humidity
152;DHT22;68;48.792;9.164;2023-08-31T00:02:21;14.90;75.30
152;DHT22;68;48.792;9.164;2023-08-31T00:04:50;14.80;74.80
152;DHT22;68;48.792;9.164;2023-08-31T00:07:17;14.70;73.10
152;DHT22;68;48.792;9.164;2023-08-31T00:09:44;14.70;69.60
152;DHT22;68;48.792;9.164;2023-08-31T00:12:11;14.60;70.20
152;DHT22;68;48.792;9.164;2023-08-31T00:14:38;14.50;67.60
152;DHT22;68;48.792;9.164;2023-08-31T00:17:06;14.60;62.80
152;DHT22;68;48.792;9.164;2023-08-31T00:19:33;14.90;66.30
152;DHT22;68;48.792;9.164;2023-08-31T00:21:59;14.80;67.30
152;DHT22;68;48.792;9.164;2023-08-31T00:24:26;14.70;73.80
152;DHT22;68;48.792;9.164;2023-08-31T00:26:57;14.60;72.70
152;DHT22;68;48.792;9.164;2023-08-31T00:29:23;14.60;69.10
152;DHT22;68;48.792;9.164;2023-08-31T00:31:51;14.60;74.50
152;DHT22;68;48.792;9.164;2023-08-31T00:34:20;14.40;70.50
152;DHT22;68;48.792;9.164;2023-08-31T00:36:47;14.30;68.70
152;DHT22;68;48.792;9.164;2023-08-31T00:39:14;14.20;66.40
152;DHT22;68;48.792;9.164;2023-08-31T00:41:43;14.30;65.90
152;DHT22;68;48.792;9.164;2023-08-31T00:44:11;14.30;68.80
152;DHT22;68;48.792;9.164;2023-08-31T00:46:40;14.30;67.30
152;DHT22;68;48.792;9.164;2023-08-31T00:49:08;14.20;65.50
152;DHT22;68;48.792;9.164;2023-08-31T00:51:37;14.10;68.30
152;DHT22;68;48.792;9.164;2023-08-31T00:54:04;13.90;65.90
152;DHT22;68;48.792;9.164;2023-08-31T00:56:31;13.90;64.20
152;DHT22;68;48.792;9.164;2023-08-31T00:58:58;13.80;64.40
152;DHT22;68;48.792;9.164;2023-08-31T01:01:30;13.80;62.20
152;DHT22;68;48.792;9.164;2023-08-31T01:04:12;13.80;63.60
152;DHT22;68;48.792;9.164;2023-08-31T01:06:50;13.80;61.50
152;DHT22;68;48.792;9.164;2023-08-31T01:09:28;13.70;61.60
152;DHT22;68;48.792;9.164;2023-08-31T01:12:02;13.60;61.90
152;DHT22;68;48.792;9.164;2023-08-31T01:14:33;13.50;60.60
152;DHT22;68;48.792;9.164;2023-08-31T01:17:02;13.40;62.00
152;DHT22;68;48.792;9.164;2023-08-31T01:19:45;13.30;59.80
152;DHT22;68;48.792;9.164;2023-08-31T01:22:21;13.20;54.20
152;DHT22;68;48.792;9.164;2023-08-31T01:24:53;13.10;53.10
152;DHT22;68;48.792;9.164;2023-08-31T01:27:20;13.10;52.80
152;DHT22;68;48.792;9.164;2023-08-31T01:29:47;13.10;51.10
152;DHT22;68;48.792;9.164;2023-08-31T01:32:14;13.10;51.10
152;DHT22;68;48.792;9.164;2023-08-31T01:34:40;13.10;50.20
152;DHT22;68;48.792;9.164;2023-08-31T01:37:12;13.00;51.30
152;DHT22;68;48.792;9.164;2023-08-31T01:39:47;13.10;49.50
152;DHT22;68;48.792;9.164;2023-08-31T01:42:16;13.10;51.30
152;DHT22;68;48.792;9.164;2023-08-31T01:44:45;13.20;52.30
152;DHT22;68;48.792;9.164;2023-08-31T01:47:15;13.20;53.30
152;DHT22;68;48.792;9.164;2023-08-31T01:49:44;13.20;55.10
152;DHT22;68;48.792;9.164;2023-08-31T01:52:11;13.20;54.70
152;DHT22;68;48.792;9.164;2023-08-31T01:54:38;13.20;56.90
152;DHT22;68;48.792;9.164;2023-08-31T01:57:05;13.30;56.00
152;DHT22;68;48.792;9.164;2023-08-31T01:59:33;13.40;56.70
152;DHT22;68;48.792;9.164;2023-08-31T02:02:01;13.50;55.20
152;DHT22;68;48.792;9.164;2023-08-31T02:04:27;13.50;58.30
152;DHT22;68;48.792;9.164;2023-08-31T02:06:54;13.50;59.90
152;DHT22;68;48.792;9.164;2023-08-31T02:09:21;13.70;57.20
152;DHT22;68;48.792;9.164;2023-08-31T02:11:48;13.80;59.40
152;DHT22;68;48.792;9.164;2023-08-31T02:14:15;13.80;59.70
152;DHT22;68;48.792;9.164;2023-08-31T02:16:43;13.90;58.30
152;DHT22;68;48.792;9.164;2023-08-31T02:19:09;13.80;59.80
152;DHT22;68;48.792;9.164;2023-08-31T02:21:36;13.90;62.00
152;DHT22;68;48.792;9.164;2023-08-31T02:24:04;13.80;60.40
152;DHT22;68;48.792;9.164;2023-08-31T02:26:31;13.90;59.40
152;DHT22;68;48.792;9.164;2023-08-31T02:28:58;13.80;61.40
152;DHT22;68;48.792;9.164;2023-08-31T02:31:25;13.90;61.10
152;DHT22;68;48.792;9.164;2023-08-31T02:33:53;14.00;61.60
152;DHT22;68;48.792;9.164;2023-08-31T02:36:19;13.80;60.40
152;DHT22;68;48.792;9.164;2023-08-31T02:38:46;13.90;59.70
152;DHT22;68;48.792;9.164;2023-08-31T02:41:15;13.90;62.80
152;DHT22;68;48.792;9.164;2023-08-31T02:43:42;13.90;61.80
152;DHT22;68;48.792;9.164;2023-08-31T02:46:08;13.80;60.50
152;DHT22;68;48.792;9.164;2023-08-31T02:48:35;13.90;55.60
152;DHT22;68;48.792;9.164;2023-08-31T02:51:03;14.10;58.10
152;DHT22;68;48.792;9.164;2023-08-31T02:53:30;14.00;61.70
152;DHT22;68;48.792;9.164;2023-08-31T02:55:57;14.10;63.20
152;DHT22;68;48.792;9.164;2023-08-31T02:58:24;13.90;65.90
152;DHT22;68;48.792;9.164;2023-08-31T03:00:51;14.00;62.30
152;DHT22;68;48.792;9.164;2023-08-31T03:03:18;14.00;65.10
152;DHT22;68;48.792;9.164;2023-08-31T03:05:45;13.90;62.90
152;DHT22;68;48.792;9.164;2023-08-31T03:08:13;13.90;60.00
152;DHT22;68;48.792;9.164;2023-08-31T03:10:40;13.90;60.40
152;DHT22;68;48.792;9.164;2023-08-31T03:13:07;14.10;61.30
152;DHT22;68;48.792;9.164;2023-08-31T03:15:34;14.00;64.50
152;DHT22;68;48.792;9.164;2023-08-31T03:18:00;14.20;66.80
152;DHT22;68;48.792;9.164;2023-08-31T03:20:27;14.30;70.10
152;DHT22;68;48.792;9.164;2023-08-31T03:22:54;14.20;76.30
152;DHT22;68;48.792;9.164;2023-08-31T03:25:22;14.00;74.60
152;DHT22;68;48.792;9.164;2023-08-31T03:27:49;14.00;72.60
152;DHT22;68;48.792;9.164;2023-08-31T03:30:16;14.10;75.20
152;DHT22;68;48.792;9.164;2023-08-31T03:32:43;14.00;75.30
152;DHT22;68;48.792;9.164;2023-08-31T03:35:10;13.80;73.50
152;DHT22;68;48.792;9.164;2023-08-31T03:37:37;13.60;70.30
152;DHT22;68;48.792;9.164;2023-08-31T03:40:05;13.60;65.60
152;DHT22;68;48.792;9.164;2023-08-31T03:42:33;13.50;63.50
152;DHT22;68;48.792;9.164;2023-08-31T03:45:00;13.70;61.90
152;DHT22;68;48.792;9.164;2023-08-31T03:47:27;13.60;65.10
152;DHT22;68;48.792;9.164;2023-08-31T03:49:54;13.50;64.70
152;DHT22;68;48.792;9.164;2023-08-31T03:52:21;13.60;61.80
152;DHT22;68;48.792;9.164;2023-08-31T03:54:48;13.60;66.90
152;DHT22;68;48.792;9.164;2023-08-31T03:57:15;13.40;64.30
152;DHT22;68;48.792;9.164;2023-08-31T03:59:43;13.50;63.00
152;DHT22;68;48.792;9.164;2023-08-31T04:02:10;13.40;61.60
152;DHT22;68;48.792;9.164;2023-08-31T04:04:37;13.30;56.40
152;DHT22;68;48.792;9.164;2023-08-31T04:07:04;13.30;56.60
152;DHT22;68;48.792;9.164;2023-08-31T04:09:31;13.20;55.30
152;DHT22;68;48.792;9.164;2023-08-31T04:11:58;13.20;53.00
152;DHT22;68;48.792;9.164;2023-08-31T04:14:26;13.30;53.40
152;DHT22;68;48.792;9.164;2023-08-31T04:16:54;13.50;53.80
152;DHT22;68;48.792;9.164;2023-08-31T04:19:21;13.50;60.60
152;DHT22;68;48.792;9.164;2023-08-31T04:21:46;13.40;60.10
152;DHT22;68;48.792;9.164;2023-08-31T04:24:13;13.30;61.90
152;DHT22;68;48.792;9.164;2023-08-31T04:26:40;13.20;60.40
152;DHT22;68;48.792;9.164;2023-08-31T04:29:07;13.30;58.50
152;DHT22;68;48.792;9.164;2023-08-31T04:31:34;13.30;61.70
152;DHT22;68;48.792;9.164;2023-08-31T04:34:02;13.20;61.10
152;DHT22;68;48.792;9.164;2023-08-31T04:36:29;13.10;59.50
152;DHT22;68;48.792;9.164;2023-08-31T04:38:56;13.00;58.50
152;DHT22;68;48.792;9.164;2023-08-31T04:41:23;13.00;55.50
152;DHT22;68;48.792;9.164;2023-08-31T04:43:50;13.00;55.80
152;DHT22;68;48.792;9.164;2023-08-31T04:46:17;12.90;56.30
152;DHT22;68;48.792;9.164;2023-08-31T04:48:44;13.00;54.90
152;DHT22;68;48.792;9.164;2023-08-31T04:51:30;12.80;53.00
152;DHT22;68;48.792;9.164;2023-08-31T04:53:57;12.90;52.50
152;DHT22;68;48.792;9.164;2023-08-31T04:56:31;12.80;51.30
152;DHT22;68;48.792;9.164;2023-08-31T04:58:58;13.00;47.90
152;DHT22;68;48.792;9.164;2023-08-31T05:01:29;13.10;50.30
152;DHT22;68;48.792;9.164;2023-08-31T05:03:56;13.00;55.20
152;DHT22;68;48.792;9.164;2023-08-31T05:06:23;12.90;55.50
152;DHT22;68;48.792;9.164;2023-08-31T05:08:54;12.90;55.90
152;DHT22;68;48.792;9.164;2023-08-31T05:11:25;13.20;57.00
152;DHT22;68;48.792;9.164;2023-08-31T05:13:52;13.20;62.50
152;DHT22;68;48.792;9.164;2023-08-31T05:16:18;13.40;62.10
152;DHT22;68;48.792;9.164;2023-08-31T05:18:45;13.50;69.80
152;DHT22;68;48.792;9.164;2023-08-31T05:21:12;13.30;70.30
152;DHT22;68;48.792;9.164;2023-08-31T05:23:39;13.30;68.20
152;DHT22;68;48.792;9.164;2023-08-31T05:26:07;13.30;69.70
152;DHT22;68;48.792;9.164;2023-08-31T05:28:34;13.30;66.70
152;DHT22;68;48.792;9.164;2023-08-31T05:31:01;13.60;67.60
152;DHT22;68;48.792;9.164;2023-08-31T05:33:28;13.50;71.20
152;DHT22;68;48.792;9.164;2023-08-31T05:36:00;13.60;69.90
152;DHT22;68;48.792;9.164;2023-08-31T05:38:29;13.50;71.20
152;DHT22;68;48.792;9.164;2023-08-31T05:41:03;13.50;67.20
152;DHT22;68;48.792;9.164;2023-08-31T05:43:32;13.50;61.70
152;DHT22;68;48.792;9.164;2023-08-31T05:45:59;13.50;58.80
152;DHT22;68;48.792;9.164;2023-08-31T05:48:26;13.60;59.80
152;DHT22;68;48.792;9.164;2023-08-31T05:50:53;13.60;59.80
152;DHT22;68;48.792;9.164;2023-08-31T05:53:20;13.60;60.60
152;DHT22;68;48.792;9.164;2023-08-31T05:55:47;13.50;66.00
152;DHT22;68;48.792;9.164;2023-08-31T05:58:14;13.40;63.30
152;DHT22;68;48.792;9.164;2023-08-31T06:00:42;13.40;61.10
152;DHT22;68;48.792;9.164;2023-08-31T06:03:09;13.50;64.10
152;DHT22;68;48.792;9.164;2023-08-31T06:05:36;13.40;62.20
152;DHT22;68;48.792;9.164;2023-08-31T06:08:04;13.50;59.40
152;DHT22;68;48.792;9.164;2023-08-31T06:10:31;13.50;59.10
152;DHT22;68;48.792;9.164;2023-08-31T06:12:57;13.70;59.10
152;DHT22;68;48.792;9.164;2023-08-31T06:15:24;13.70;60.40
152;DHT22;68;48.792;9.164;2023-08-31T06:17:52;13.70;62.00
152;DHT22;68;48.792;9.164;2023-08-31T06:20:19;13.80;65.10
152;DHT22;68;48.792;9.164;2023-08-31T06:22:46;13.80;63.80
152;DHT22;68;48.792;9.164;2023-08-31T06:25:13;13.70;64.90
152;DHT22;68;48.792;9.164;2023-08-31T06:27:42;13.70;63.50
152;DHT22;68;48.792;9.164;2023-08-31T06:30:09;13.70;63.00
152;DHT22;68;48.792;9.164;2023-08-31T06:32:42;13.80;65.70
152;DHT22;68;48.792;9.164;2023-08-31T06:35:10;13.80;69.30
152;DHT22;68;48.792;9.164;2023-08-31T06:37:37;13.90;67.30
152;DHT22;68;48.792;9.164;2023-08-31T06:40:05;13.80;66.90
152;DHT22;68;48.792;9.164;2023-08-31T06:42:32;14.00;64.00
152;DHT22;68;48.792;9.164;2023-08-31T06:44:58;14.00;66.00
152;DHT22;68;48.792;9.164;2023-08-31T06:47:25;14.30;68.40
152;DHT22;68;48.792;9.164;2023-08-31T06:49:52;14.40;70.00
152;DHT22;68;48.792;9.164;2023-08-31T06:52:20;14.50;72.00
152;DHT22;68;48.792;9.164;2023-08-31T06:54:47;14.60;75.80
152;DHT22;68;48.792;9.164;2023-08-31T06:57:14;14.70;77.70
152;DHT22;68;48.792;9.164;2023-08-31T06:59:41;15.00;80.60
152;DHT22;68;48.792;9.164;2023-08-31T07:02:07;14.90;83.20
152;DHT22;68;48.792;9.164;2023-08-31T07:04:34;15.00;86.30
152;DHT22;68;48.792;9.164;2023-08-31T07:07:01;14.90;87.50
152;DHT22;68;48.792;9.164;2023-08-31T07:09:29;15.00;88.80
152;DHT22;68;48.792;9.164;2023-08-31T07:11:56;15.10;91.50
152;DHT22;68;48.792;9.164;2023-08-31T07:14:23;15.10;92.00
152;DHT22;68;48.792;9.164;2023-08-31T07:16:51;14.90;92.60
152;DHT22;68;48.792;9.164;2023-08-31T07:19:18;14.80;93.60
152;DHT22;68;48.792;9.164;2023-08-31T07:21:45;14.90;92.40
152;DHT22;68;48.792;9.164;2023-08-31T07:24:13;15.10;92.20
152;DHT22;68;48.792;9.164;2023-08-31T07:26:41;15.20;93.20
152;DHT22;68;48.792;9.164;2023-08-31T07:29:08;15.30;92.80
152;DHT22;68;48.792;9.164;2023-08-31T07:31:34;15.20;93.10
152;DHT22;68;48.792;9.164;2023-08-31T07:34:01;15.50;93.30
152;DHT22;68;48.792;9.164;2023-08-31T07:36:29;15.30;94.20
152;DHT22;68;48.792;9.164;2023-08-31T07:38:55;15.50;92.90
152;DHT22;68;48.792;9.164;2023-08-31T07:41:23;15.60;94.70
152;DHT22;68;48.792;9.164;2023-08-31T07:43:51;15.70;95.10
152;DHT22;68;48.792;9.164;2023-08-31T07:46:18;15.90;95.10
152;DHT22;68;48.792;9.164;2023-08-31T07:48:45;16.00;95.10
152;DHT22;68;48.792;9.164;2023-08-31T07:51:14;15.90;95.00
152;DHT22;68;48.792;9.164;2023-08-31T07:53:40;16.00;95.10
152;DHT22;68;48.792;9.164;2023-08-31T07:56:07;16.10;94.30
152;DHT22;68;48.792;9.164;2023-08-31T07:58:34;16.30;93.90
152;DHT22;68;48.792;9.164;2023-08-31T08:01:02;16.40;93.90
152;DHT22;68;48.792;9.164;2023-08-31T08:03:30;16.50;91.60
152;DHT22;68;48.792;9.164;2023-08-31T08:05:57;16.60;91.80
152;DHT22;68;48.792;9.164;2023-08-31T08:08:24;16.60;91.70
152;DHT22;68;48.792;9.164;2023-08-31T08:10:52;16.70;88.40
152;DHT22;68;48.792;9.164;2023-08-31T08:13:19;16.80;89.00
152;DHT22;68;48.792;9.164;2023-08-31T08:15:46;16.90;88.20
152;DHT22;68;48.792;9.164;2023-08-31T08:18:14;17.00;84.40
152;DHT22;68;48.792;9.164;2023-08-31T08:20:41;16.90;82.20
152;DHT22;68;48.792;9.164;2023-08-31T08:23:07;16.90;86.30
152;DHT22;68;48.792;9.164;2023-08-31T08:25:34;17.00;83.70
152;DHT22;68;48.792;9.164;2023-08-31T08:28:01;16.80;83.00
152;DHT22;68;48.792;9.164;2023-08-31T08:30:28;16.70;84.80
152;DHT22;68;48.792;9.164;2023-08-31T08:32:55;16.80;86.10
152;DHT22;68;48.792;9.164;2023-08-31T08:35:24;17.00;85.30
152;DHT22;68;48.792;9.164;2023-08-31T08:37:51;16.90;87.60
152;DHT22;68;48.792;9.164;2023-08-31T08:40:18;16.90;89.00
152;DHT22;68;48.792;9.164;2023-08-31T08:42:47;16.80;83.30
152;DHT22;68;48.792;9.164;2023-08-31T08:45:14;17.00;83.40
152;DHT22;68;48.792;9.164;2023-08-31T08:47:43;17.10;82.30
152;DHT22;68;48.792;9.164;2023-08-31T08:50:10;17.30;81.60
152;DHT22;68;48.792;9.164;2023-08-31T08:52:39;17.20;80.60
152;DHT22;68;48.792;9.164;2023-08-31T08:55:07;17.10;77.50
152;DHT22;68;48.792;9.164;2023-08-31T08:57:34;17.20;77.10
152;DHT22;68;48.792;9.164;2023-08-31T09:00:02;17.20;80.20
152;DHT22;68;48.792;9.164;2023-08-31T09:02:29;17.20;82.70
152;DHT22;68;48.792;9.164;2023-08-31T09:04:56;17.20;83.90
152;DHT22;68;48.792;9.164;2023-08-31T09:07:23;17.30;79.90
152;DHT22;68;48.792;9.164;2023-08-31T09:09:53;17.50;81.10
152;DHT22;68;48.792;9.164;2023-08-31T09:12:22;17.60;79.50
152;DHT22;68;48.792;9.164;2023-08-31T09:14:59;17.70;80.20
152;DHT22;68;48.792;9.164;2023-08-31T09:17:26;17.80;81.10
152;DHT22;68;48.792;9.164;2023-08-31T09:19:59;17.70;76.80
152;DHT22;68;48.792;9.164;2023-08-31T09:22:29;17.50;79.70
152;DHT22;68;48.792;9.164;2023-08-31T09:24:57;17.50;82.00
152;DHT22;68;48.792;9.164;2023-08-31T09:27:23;17.50;79.10
152;DHT22;68;48.792;9.164;2023-08-31T09:29:50;17.70;79.20
152;DHT22;68;48.792;9.164;2023-08-31T09:32:20;17.80;79.30
152;DHT22;68;48.792;9.164;2023-08-31T09:34:47;17.90;77.80
152;DHT22;68;48.792;9.164;2023-08-31T09:37:16;17.90;78.60
152;DHT22;68;48.792;9.164;2023-08-31T09:39:43;17.90;77.30
152;DHT22;68;48.792;9.164;2023-08-31T09:42:11;18.10;77.20
152;DHT22;68;48.792;9.164;2023-08-31T09:44:40;18.20;73.40
152;DHT22;68;48.792;9.164;2023-08-31T09:47:09;18.40;75.10
152;DHT22;68;48.792;9.164;2023-08-31T09:49:37;18.40;74.70
152;DHT22;68;48.792;9.164;2023-08-31T09:52:05;18.40;73.50
152;DHT22;68;48.792;9.164;2023-08-31T09:54:35;18.40;70.10
152;DHT22;68;48.792;9.164;2023-08-31T09:57:02;18.40;72.00
152;DHT22;68;48.792;9.164;2023-08-31T09:59:31;18.30;74.60
152;DHT22;68;48.792;9.164;2023-08-31T10:02:00;18.30;73.20
152;DHT22;68;48.792;9.164;2023-08-31T10:04:29;18.10;75.50
152;DHT22;68;48.792;9.164;2023-08-31T10:06:58;18.30;73.60
152;DHT22;68;48.792;9.164;2023-08-31T10:09:25;18.40;71.70
152;DHT22;68;48.792;9.164;2023-08-31T10:11:53;18.60;72.90
152;DHT22;68;48.792;9.164;2023-08-31T10:14:20;18.80;71.10
152;DHT22;68;48.792;9.164;2023-08-31T10:16:49;18.60;70.70
152;DHT22;68;48.792;9.164;2023-08-31T10:19:18;18.60;71.10
152;DHT22;68;48.792;9.164;2023-08-31T10:21:44;18.80;68.40
152;DHT22;68;48.792;9.164;2023-08-31T10:24:11;18.70;69.80
152;DHT22;68;48.792;9.164;2023-08-31T10:26:38;18.70;69.40
152;DHT22;68;48.792;9.164;2023-08-31T10:29:05;18.80;68.30
152;DHT22;68;48.792;9.164;2023-08-31T10:31:32;18.70;71.10
152;DHT22;68;48.792;9.164;2023-08-31T10:34:02;18.50;71.90
152;DHT22;68;48.792;9.164;2023-08-31T10:36:37;18.60;71.80
152;DHT22;68;48.792;9.164;2023-08-31T10:39:12;19.00;72.90
152;DHT22;68;48.792;9.164;2023-08-31T10:41:41;19.10;71.30
152;DHT22;68;48.792;9.164;2023-08-31T10:44:19;19.30;68.90
152;DHT22;68;48.792;9.164;2023-08-31T10:46:46;19.00;71.50
152;DHT22;68;48.792;9.164;2023-08-31T10:49:15;19.10;70.00
152;DHT22;68;48.792;9.164;2023-08-31T10:51:45;18.90;71.40
152;DHT22;68;48.792;9.164;2023-08-31T10:54:13;18.70;72.10
152;DHT22;68;48.792;9.164;2023-08-31T10:57:03;18.80;70.80
152;DHT22;68;48.792;9.164;2023-08-31T10:59:45;18.70;71.30
152;DHT22;68;48.792;9.164;2023-08-31T11:02:34;18.90;69.70
152;DHT22;68;48.792;9.164;2023-08-31T11:05:06;19.00;73.30
152;DHT22;68;48.792;9.164;2023-08-31T11:07:34;18.90;72.30
152;DHT22;68;48.792;9.164;2023-08-31T11:10:10;18.80;73.70
152;DHT22;68;48.792;9.164;2023-08-31T11:12:37;18.70;71.20
152;DHT22;68;48.792;9.164;2023-08-31T11:15:04;18.80;72.10
152;DHT22;68;48.792;9.164;2023-08-31T11:17:32;18.80;73.30
152;DHT22;68;48.792;9.164;2023-08-31T11:19:59;18.90;72.40
152;DHT22;68;48.792;9.164;2023-08-31T11:22:27;18.80;76.00
152;DHT22;68;48.792;9.164;2023-08-31T11:24:54;18.80;73.20
152;DHT22;68;48.792;9.164;2023-08-31T11:27:23;18.90;75.20
152;DHT22;68;48.792;9.164;2023-08-31T11:29:50;19.40;72.50
152;DHT22;68;48.792;9.164;2023-08-31T11:32:16;19.80;70.60
152;DHT22;68;48.792;9.164;2023-08-31T11:34:44;20.00;68.10
152;DHT22;68;48.792;9.164;2023-08-31T11:37:13;20.30;67.20
152;DHT22;68;48.792;9.164;2023-08-31T11:39:49;20.00;66.40
152;DHT22;68;48.792;9.164;2023-08-31T11:42:16;20.20;68.30
152;DHT22;68;48.792;9.164;2023-08-31T11:44:44;19.80;68.80
152;DHT22;68;48.792;9.164;2023-08-31T11:47:12;19.90;70.70
152;DHT22;68;48.792;9.164;2023-08-31T11:49:40;20.00;68.40
152;DHT22;68;48.792;9.164;2023-08-31T11:52:08;20.10;67.90
152;DHT22;68;48.792;9.164;2023-08-31T11:54:37;20.30;68.70
152;DHT22;68;48.792;9.164;2023-08-31T11:57:06;20.00;69.90
152;DHT22;68;48.792;9.164;2023-08-31T11:59:35;20.00;70.60
152;DHT22;68;48.792;9.164;2023-08-31T12:02:02;20.00;70.50
152;DHT22;68;48.792;9.164;2023-08-31T12:04:31;20.00;68.30
152;DHT22;68;48.792;9.164;2023-08-31T12:07:01;20.10;69.60
152;DHT22;68;48.792;9.164;2023-08-31T12:09:29;19.70;67.60
152;DHT22;68;48.792;9.164;2023-08-31T12:11:56;19.80;68.50
152;DHT22;68;48.792;9.164;2023-08-31T12:14:25;19.80;69.90
152;DHT22;68;48.792;9.164;2023-08-31T12:17:00;19.80;68.20
152;DHT22;68;48.792;9.164;2023-08-31T12:19:27;19.70;67.50
152;DHT22;68;48.792;9.164;2023-08-31T12:21:55;19.80;69.60
152;DHT22;68;48.792;9.164;2023-08-31T12:24:22;20.20;69.20
152;DHT22;68;48.792;9.164;2023-08-31T12:26:49;20.40;68.20
152;DHT22;68;48.792;9.164;2023-08-31T12:29:16;20.50;68.10
152;DHT22;68;48.792;9.164;2023-08-31T12:31:44;20.70;66.60
152;DHT22;68;48.792;9.164;2023-08-31T12:34:11;21.10;66.80
152;DHT22;68;48.792;9.164;2023-08-31T12:36:38;21.10;62.80
152;DHT22;68;48.792;9.164;2023-08-31T12:39:07;21.40;65.60
152;DHT22;68;48.792;9.164;2023-08-31T12:41:35;21.60;66.50
152;DHT22;68;48.792;9.164;2023-08-31T12:44:02;22.00;66.00
152;DHT22;68;48.792;9.164;2023-08-31T12:46:30;21.90;66.70
152;DHT22;68;48.792;9.164;2023-08-31T12:48:59;21.40;68.20
152;DHT22;68;48.792;9.164;2023-08-31T12:51:27;21.20;65.00
152;DHT22;68;48.792;9.164;2023-08-31T12:53:54;21.20;64.00
152;DHT22;68;48.792;9.164;2023-08-31T12:56:21;21.00;64.10
152;DHT22;68;48.792;9.164;2023-08-31T12:58:49;20.80;65.40
152;DHT22;68;48.792;9.164;2023-08-31T13:01:17;20.40;66.60
152;DHT22;68;48.792;9.164;2023-08-31T13:03:44;20.30;65.50
152;DHT22;68;48.792;9.164;2023-08-31T13:06:12;20.20;73.80
152;DHT22;68;48.792;9.164;2023-08-31T13:08:39;20.10;67.90
152;DHT22;68;48.792;9.164;2023-08-31T13:11:05;20.10;67.40
152;DHT22;68;48.792;9.164;2023-08-31T13:13:32;20.20;67.40
152;DHT22;68;48.792;9.164;2023-08-31T13:15:59;20.50;68.00
152;DHT22;68;48.792;9.164;2023-08-31T13:18:26;20.30;68.30
152;DHT22;68;48.792;9.164;2023-08-31T13:20:54;20.30;70.00
152;DHT22;68;48.792;9.164;2023-08-31T13:23:22;20.30;68.70
152;DHT22;68;48.792;9.164;2023-08-31T13:25:50;20.30;68.50
152;DHT22;68;48.792;9.164;2023-08-31T13:28:17;20.20;68.90
152;DHT22;68;48.792;9.164;2023-08-31T13:30:45;20.20;69.30
152;DHT22;68;48.792;9.164;2023-08-31T13:33:11;20.50;67.80
152;DHT22;68;48.792;9.164;2023-08-31T13:35:38;20.70;67.40
152;DHT22;68;48.792;9.164;2023-08-31T13:38:05;20.60;72.40
152;DHT22;68;48.792;9.164;2023-08-31T13:40:35;20.30;68.50
152;DHT22;68;48.792;9.164;2023-08-31T13:43:02;20.20;67.80
152;DHT22;68;48.792;9.164;2023-08-31T13:45:30;20.30;67.70
152;DHT22;68;48.792;9.164;2023-08-31T13:47:57;20.30;68.60
152;DHT22;68;48.792;9.164;2023-08-31T13:50:25;20.40;68.50
152;DHT22;68;48.792;9.164;2023-08-31T13:52:52;20.50;67.10
152;DHT22;68;48.792;9.164;2023-08-31T13:55:19;20.70;66.80
152;DHT22;68;48.792;9.164;2023-08-31T13:57:47;20.80;66.70
152;DHT22;68;48.792;9.164;2023-08-31T14:00:14;20.90;66.90
152;DHT22;68;48.792;9.164;2023-08-31T14:02:42;20.70;66.90
152;DHT22;68;48.792;9.164;2023-08-31T14:05:10;20.60;70.20
152;DHT22;68;48.792;9.164;2023-08-31T14:07:37;20.60;67.50
152;DHT22;68;48.792;9.164;2023-08-31T14:10:05;20.80;68.00
152;DHT22;68;48.792;9.164;2023-08-31T14:12:32;20.60;70.90
152;DHT22;68;48.792;9.164;2023-08-31T14:15:00;20.50;73.50
152;DHT22;68;48.792;9.164;2023-08-31T14:17:30;20.50;70.10
152;DHT22;68;48.792;9.164;2023-08-31T14:19:59;20.40;73.30
152;DHT22;68;48.792;9.164;2023-08-31T14:22:26;20.10;74.50
152;DHT22;68;48.792;9.164;2023-08-31T14:24:53;20.10;73.60
152;DHT22;68;48.792;9.164;2023-08-31T14:27:21;20.10;73.90
152;DHT22;68;48.792;9.164;2023-08-31T14:29:48;19.70;74.60
152;DHT22;68;48.792;9.164;2023-08-31T14:32:16;19.80;76.80
152;DHT22;68;48.792;9.164;2023-08-31T14:34:43;19.80;76.20
152;DHT22;68;48.792;9.164;2023-08-31T14:37:10;19.90;73.50
152;DHT22;68;48.792;9.164;2023-08-31T14:39:37;19.90;74.80
152;DHT22;68;48.792;9.164;2023-08-31T14:42:04;19.20;72.40
152;DHT22;68;48.792;9.164;2023-08-31T14:44:31;19.10;77.40
152;DHT22;68;48.792;9.164;2023-08-31T14:46:57;19.10;78.90
152;DHT22;68;48.792;9.164;2023-08-31T14:49:26;19.00;77.40
152;DHT22;68;48.792;9.164;2023-08-31T14:51:52;19.30;78.10
152;DHT22;68;48.792;9.164;2023-08-31T14:54:19;19.30;77.60
152;DHT22;68;48.792;9.164;2023-08-31T14:56:48;19.60;74.20
152;DHT22;68;48.792;9.164;2023-08-31T14:59:14;19.80;70.60
152;DHT22;68;48.792;9.164;2023-08-31T15:01:41;19.80;71.60
152;DHT22;68;48.792;9.164;2023-08-31T15:04:08;19.50;74.10
152;DHT22;68;48.792;9.164;2023-08-31T15:06:36;19.50;76.40
152;DHT22;68;48.792;9.164;2023-08-31T15:09:03;19.50;77.00
152;DHT22;68;48.792;9.164;2023-08-31T15:11:31;19.60;73.20
152;DHT22;68;48.792;9.164;2023-08-31T15:13:58;19.90;74.70
152;DHT22;68;48.792;9.164;2023-08-31T15:16:25;20.00;75.70
152;DHT22;68;48.792;9.164;2023-08-31T15:18:53;20.00;76.90
152;DHT22;68;48.792;9.164;2023-08-31T15:21:20;20.10;73.20
152;DHT22;68;48.792;9.164;2023-08-31T15:23:48;20.30;74.10
152;DHT22;68;48.792;9.164;2023-08-31T15:26:16;20.30;74.90
152;DHT22;68;48.792;9.164;2023-08-31T15:28:43;20.20;74.90
152;DHT22;68;48.792;9.164;2023-08-31T15:31:12;20.20;74.90
152;DHT22;68;48.792;9.164;2023-08-31T15:33:38;20.20;72.10
152;DHT22;68;48.792;9.164;2023-08-31T15:36:06;20.00;72.50
152;DHT22;68;48.792;9.164;2023-08-31T15:38:34;20.00;78.20
152;DHT22;68;48.792;9.164;2023-08-31T15:41:04;19.50;72.60
152;DHT22;68;48.792;9.164;2023-08-31T15:43:33;19.70;73.50
152;DHT22;68;48.792;9.164;2023-08-31T15:46:00;19.80;75.80
152;DHT22;68;48.792;9.164;2023-08-31T15:48:27;19.80;77.60
152;DHT22;68;48.792;9.164;2023-08-31T15:50:55;19.50;75.20
152;DHT22;68;48.792;9.164;2023-08-31T15:53:22;19.30;76.30
152;DHT22;68;48.792;9.164;2023-08-31T15:55:50;19.40;76.50
152;DHT22;68;48.792;9.164;2023-08-31T15:58:18;19.50;77.30
152;DHT22;68;48.792;9.164;2023-08-31T16:00:46;19.20;76.20
152;DHT22;68;48.792;9.164;2023-08-31T16:03:12;19.10;78.40
152;DHT22;68;48.792;9.164;2023-08-31T16:05:39;18.90;78.70
152;DHT22;68;48.792;9.164;2023-08-31T16:08:06;19.10;80.80
152;DHT22;68;48.792;9.164;2023-08-31T16:10:33;19.00;80.00
152;DHT22;68;48.792;9.164;2023-08-31T16:13:00;19.40;79.60
152;DHT22;68;48.792;9.164;2023-08-31T16:15:29;19.60;77.30
152;DHT22;68;48.792;9.164;2023-08-31T16:17:56;19.60;78.50
152;DHT22;68;48.792;9.164;2023-08-31T16:20:23;19.20;78.70
152;DHT22;68;48.792;9.164;2023-08-31T16:22:50;19.00;80.10
152;DHT22;68;48.792;9.164;2023-08-31T16:25:17;19.10;81.90
152;DHT22;68;48.792;9.164;2023-08-31T16:27:44;18.90;82.20
152;DHT22;68;48.792;9.164;2023-08-31T16:30:12;19.00;80.40
152;DHT22;68;48.792;9.164;2023-08-31T16:32:42;19.10;80.00
152;DHT22;68;48.792;9.164;2023-08-31T16:35:12;19.00;79.10
152;DHT22;68;48.792;9.164;2023-08-31T16:37:39;19.20;79.90
152;DHT22;68;48.792;9.164;2023-08-31T16:40:08;19.40;80.00
152;DHT22;68;48.792;9.164;2023-08-31T16:42:36;19.20;80.60
152;DHT22;68;48.792;9.164;2023-08-31T16:45:04;19.10;81.00
152;DHT22;68;48.792;9.164;2023-08-31T16:47:31;19.30;81.80
152;DHT22;68;48.792;9.164;2023-08-31T16:50:00;19.10;82.90
152;DHT22;68;48.792;9.164;2023-08-31T16:52:29;19.00;82.00
152;DHT22;68;48.792;9.164;2023-08-31T16:54:56;18.80;83.50
152;DHT22;68;48.792;9.164;2023-08-31T16:57:22;18.90;82.00